createdAt,value
2023-05-09T00:00:45.037Z,2.9
2023-05-09T00:06:30.289Z,2.8
2023-05-09T00:12:15.081Z,4.4
2023-05-09T00:17:59.936Z,2.9
2023-05-09T00:23:44.847Z,3.1
2023-05-09T00:29:29.387Z,3.3
2023-05-09T00:35:16.140Z,3
2023-05-09T00:41:01.134Z,3.2
2023-05-09T00:46:46.482Z,3.8
2023-05-09T00:52:31.736Z,2.7
2023-05-09T00:58:16.732Z,3.1
2023-05-09T01:04:01.482Z,2.7
2023-05-09T01:09:52.659Z,3.4
2023-05-09T01:15:40.251Z,3.2
2023-05-09T01:21:29.686Z,3.3
2023-05-09T01:27:28.945Z,2.8
2023-05-09T01:33:15.934Z,4.1
2023-05-09T01:39:02.026Z,2.9
2023-05-09T01:44:48.818Z,3.2
2023-05-09T01:50:33.699Z,3
2023-05-09T01:56:18.752Z,3.7
2023-05-09T02:02:03.960Z,2.7
2023-05-09T02:07:50.515Z,3.9
2023-05-09T02:13:35.248Z,2.9
2023-05-09T02:19:20.061Z,3.3
2023-05-09T02:25:05.397Z,2.8
2023-05-09T02:30:50.731Z,4
2023-05-09T02:36:37.079Z,4
2023-05-09T02:42:22.532Z,2.6
2023-05-09T02:48:11.718Z,2.5
2023-05-09T02:53:56.351Z,3.4
2023-05-09T02:59:40.998Z,2.7
2023-05-09T03:05:25.874Z,4
2023-05-09T03:11:10.544Z,3.8
2023-05-09T03:16:55.450Z,3
2023-05-09T03:22:40.023Z,3
2023-05-09T03:28:24.917Z,2.9
2023-05-09T03:34:09.373Z,3.7
2023-05-09T03:39:54.064Z,2.5
2023-05-09T03:45:38.885Z,3
2023-05-09T03:51:23.652Z,3.1
2023-05-09T03:57:08.884Z,3.2
2023-05-09T04:02:54.568Z,3.3
2023-05-09T04:08:39.337Z,3.9
2023-05-09T04:14:24.030Z,2.9
2023-05-09T04:20:09.392Z,3.4
2023-05-09T04:25:53.940Z,2.8
2023-05-09T04:31:39.112Z,3.5
2023-05-09T04:37:23.930Z,3
2023-05-09T04:43:08.537Z,3.1
2023-05-09T04:48:53.175Z,2.9
2023-05-09T04:54:38.029Z,2.8
2023-05-09T05:00:23.098Z,3.6
2023-05-09T05:06:07.990Z,3.5
2023-05-09T05:12:06.073Z,3
2023-05-09T05:17:52.713Z,3
2023-05-09T05:23:37.412Z,2.9
2023-05-09T05:29:22.451Z,3.3
2023-05-09T05:35:08.993Z,3.8
2023-05-09T05:40:53.757Z,3.1
2023-05-09T05:46:38.615Z,3.3
2023-05-09T05:52:23.300Z,3.3
2023-05-09T05:58:08.024Z,3.9
2023-05-09T06:03:52.995Z,4.2
2023-05-09T06:09:38.266Z,3.2
2023-05-09T06:15:23.174Z,2.9
2023-05-09T06:21:08.366Z,3.6
2023-05-09T06:26:53.141Z,3.1
2023-05-09T06:32:37.779Z,3.3
2023-05-09T06:38:22.572Z,3
2023-05-09T06:44:07.356Z,3.2
2023-05-09T06:49:52.127Z,4.1
2023-05-09T06:55:36.812Z,3.1
2023-05-09T07:01:21.776Z,3.6
2023-05-09T07:07:07.421Z,2.9
2023-05-09T07:12:52.002Z,2.6
2023-05-09T07:18:36.895Z,3
2023-05-09T07:24:21.529Z,3.3
2023-05-09T07:30:06.555Z,3.4
2023-05-09T07:35:51.664Z,3.2
2023-05-09T07:41:36.379Z,4.1
2023-05-09T07:47:21.296Z,2.5
2023-05-09T07:53:05.941Z,3.5
2023-05-09T07:58:52.617Z,2.6
2023-05-09T08:04:38.314Z,4.3
2023-05-09T08:10:22.606Z,2.7
2023-05-09T08:16:08.372Z,3.6
2023-05-09T08:21:52.918Z,3.5
2023-05-09T08:27:37.537Z,2.3
2023-05-09T08:33:22.377Z,2.7
2023-05-09T08:39:07.450Z,3.2
2023-05-09T08:44:52.206Z,3.2
2023-05-09T08:50:37.618Z,3.4
2023-05-09T08:56:22.731Z,5.9
2023-05-09T09:02:09.175Z,3.1
2023-05-09T09:07:54.041Z,6.2
2023-05-09T09:13:41.268Z,3
2023-05-09T09:19:25.896Z,3
2023-05-09T09:25:11.020Z,2.6
2023-05-09T09:30:56.270Z,3.9
2023-05-09T09:36:40.954Z,3.7
2023-05-09T09:42:25.774Z,4.2
2023-05-09T09:48:10.846Z,6.1
2023-05-09T09:53:55.655Z,2.8
2023-05-09T09:59:40.740Z,4.3
2023-05-09T10:05:29.429Z,3.3
2023-05-09T10:11:14.489Z,5.6
2023-05-09T10:17:00.427Z,5.5
2023-05-09T10:22:45.548Z,3.2
2023-05-09T10:28:34.671Z,4.4
2023-05-09T10:34:19.947Z,3.8
2023-05-09T10:40:06.562Z,4.8
2023-05-09T10:45:51.431Z,3.7
2023-05-09T10:51:36.243Z,3.1
2023-05-09T10:57:21.641Z,4.4
2023-05-09T11:03:14.222Z,3.1
2023-05-09T11:08:58.958Z,4.5
2023-05-09T11:14:47.651Z,2.7
2023-05-09T11:20:33.621Z,2.7
2023-05-09T11:26:18.857Z,4.6
2023-05-09T11:32:18.049Z,9.1
2023-05-09T11:38:07.325Z,10.1
2023-05-09T11:43:52.632Z,9.1
2023-05-09T11:49:37.367Z,10.1
2023-05-09T11:55:23.335Z,7.8
2023-05-09T12:01:09.550Z,8.6
2023-05-09T12:06:56.562Z,8.7
2023-05-09T12:12:45.426Z,6.8
2023-05-09T12:18:30.157Z,5.5
2023-05-09T12:24:14.920Z,8.1
2023-05-09T12:30:00.157Z,7.2
2023-05-09T12:35:48.452Z,5.2
2023-05-09T12:41:57.816Z,3.8
2023-05-09T12:47:38.236Z,5.2
2023-05-09T12:53:31.003Z,4.4
2023-05-09T12:59:22.817Z,5.2
2023-05-09T13:05:18.759Z,6.1
2023-05-09T13:11:17.880Z,2.8
2023-05-09T13:17:03.304Z,4
2023-05-09T13:22:48.903Z,3.2
2023-05-09T13:28:33.717Z,4.4
2023-05-09T13:34:18.162Z,4.8
2023-05-09T13:40:03.891Z,2.8
2023-05-09T13:45:48.945Z,6.2
2023-05-09T13:51:33.908Z,3.9
2023-05-09T13:57:18.618Z,3.2
2023-05-09T14:03:03.901Z,2.5
2023-05-09T14:08:49.273Z,2.8
2023-05-09T14:14:35.033Z,3.1
2023-05-09T14:20:20.631Z,3
2023-05-09T14:26:05.321Z,2.5
2023-05-09T14:31:50.242Z,2.7
2023-05-09T14:37:37.072Z,2.2
2023-05-09T14:43:21.794Z,1.8
2023-05-09T14:49:06.638Z,1.8
2023-05-09T14:54:51.595Z,2.4
2023-05-09T15:00:36.374Z,2.9
2023-05-09T15:06:21.259Z,1.9
2023-05-09T15:12:06.118Z,2.4
2023-05-09T15:17:51.188Z,1.7
2023-05-09T15:23:36.445Z,1.5
2023-05-09T15:29:21.480Z,1.3
2023-05-09T15:35:08.020Z,0.9
2023-05-09T15:40:52.853Z,1.2
2023-05-09T15:46:38.300Z,1.7
2023-05-09T15:52:23.408Z,2.2
2023-05-09T15:58:08.277Z,1.6
2023-05-09T16:03:53.755Z,2.2
2023-05-09T16:09:38.697Z,3
2023-05-09T16:15:23.488Z,3.6
2023-05-09T16:21:08.843Z,3.1
2023-05-09T16:26:53.616Z,2.4
2023-05-09T16:32:38.146Z,3.1
2023-05-09T16:38:22.668Z,2.5
2023-05-09T16:44:07.440Z,3.2
2023-05-09T16:49:52.310Z,3.6
2023-05-09T16:55:37.034Z,3
2023-05-09T17:01:22.133Z,2.4
2023-05-09T17:07:06.914Z,2.5
2023-05-09T17:12:51.929Z,2.5
2023-05-09T17:18:41.063Z,2
2023-05-09T17:24:25.811Z,1.7
2023-05-09T17:30:11.768Z,1.6
2023-05-09T17:35:57.312Z,2
2023-05-09T17:41:42.019Z,1.6
2023-05-09T17:47:27.783Z,1.9
2023-05-09T17:53:12.559Z,1.7
2023-05-09T17:58:57.293Z,3.5
2023-05-09T18:04:42.198Z,1
2023-05-09T18:10:26.816Z,1.6
2023-05-09T18:16:12.171Z,1.4
2023-05-09T18:21:57.056Z,2.2
2023-05-09T18:27:41.801Z,1.1
2023-05-09T18:33:27.305Z,2.5
2023-05-09T18:39:12.192Z,1.8
2023-05-09T18:44:56.884Z,1.8
2023-05-09T18:50:41.534Z,1.2
2023-05-09T18:56:26.247Z,2.7
2023-05-09T19:02:10.941Z,1.7
2023-05-09T19:07:57.578Z,2.4
2023-05-09T19:13:43.225Z,2.4
2023-05-09T19:19:28.104Z,2.5
2023-05-09T19:25:13.214Z,2.7
2023-05-09T19:30:58.177Z,2.5
2023-05-09T19:36:42.910Z,2.8
2023-05-09T19:42:27.713Z,5.7
2023-05-09T19:48:12.681Z,3.2
2023-05-09T19:53:57.344Z,24
2023-05-09T19:59:42.039Z,56
2023-05-09T20:05:27.007Z,46.9
2023-05-09T20:11:12.296Z,40.6
2023-05-09T20:16:56.983Z,37
2023-05-09T20:22:41.673Z,35.9
2023-05-09T20:28:27.244Z,28.7
2023-05-09T20:34:13.003Z,30.2
2023-05-09T20:39:58.656Z,30.5
2023-05-09T20:45:43.667Z,28.3
2023-05-09T20:51:28.994Z,23.6
2023-05-09T20:57:15.764Z,22.6
2023-05-09T21:03:02.517Z,21.8
2023-05-09T21:08:48.215Z,21
2023-05-09T21:14:32.891Z,19
2023-05-09T21:20:18.906Z,19.4
2023-05-09T21:26:03.693Z,14.8
2023-05-09T21:31:48.650Z,15.1
2023-05-09T21:37:33.496Z,12.3
2023-05-09T21:43:18.377Z,13.2
2023-05-09T21:49:02.925Z,13.4
2023-05-09T21:54:47.529Z,11.2
2023-05-09T22:00:32.401Z,12.7
2023-05-09T22:06:17.245Z,11.9
2023-05-09T22:12:02.120Z,11.9
2023-05-09T22:17:47.001Z,11.8
2023-05-09T22:23:31.685Z,9.5
2023-05-09T22:29:16.489Z,9.3
2023-05-09T22:35:02.044Z,8.7
2023-05-09T22:40:47.020Z,8.5
2023-05-09T22:46:32.030Z,9.7
2023-05-09T22:52:17.102Z,9.5
2023-05-09T22:58:02.133Z,10.7
2023-05-09T23:03:47.108Z,11.2
2023-05-09T23:09:31.855Z,9.5
2023-05-09T23:15:16.948Z,9
2023-05-09T23:21:01.605Z,6.9
2023-05-09T23:26:46.431Z,8
2023-05-09T23:32:32.036Z,7.3
2023-05-09T23:38:16.664Z,9.7
2023-05-09T23:44:01.326Z,7
2023-05-09T23:49:46.304Z,6.5
2023-05-09T23:55:31.189Z,5.7
